sensor_id;sensor_type;location;lat;lon;timestamp;temperature;humidity
20091;DHT22;10205;49.678;6.560;2024-02-14T00:01:01;11.40;74.40
20091;DHT22;10205;49.678;6.560;2024-02-14T00:03:28;11.50;74.60
20091;DHT22;10205;49.678;6.560;2024-02-14T00:05:55;11.50;74.60
20091;DHT22;10205;49.678;6.560;2024-02-14T00:08:23;11.50;74.60
20091;DHT22;10205;49.678;6.560;2024-02-14T00:10:50;11.50;75.30
20091;DHT22;10205;49.678;6.560;2024-02-14T00:13:19;11.50;74.50
20091;DHT22;10205;49.678;6.560;2024-02-14T00:15:46;11.50;74.30
20091;DHT22;10205;49.678;6.560;2024-02-14T00:18:14;11.50;74.30
20091;DHT22;10205;49.678;6.560;2024-02-14T00:20:41;11.50;74.30
20091;DHT22;10205;49.678;6.560;2024-02-14T00:23:09;11.50;74.30
20091;DHT22;10205;49.678;6.560;2024-02-14T00:25:37;11.50;74.40
20091;DHT22;10205;49.678;6.560;2024-02-14T00:28:04;11.50;74.40
20091;DHT22;10205;49.678;6.560;2024-02-14T00:30:33;11.50;74.40
20091;DHT22;10205;49.678;6.560;2024-02-14T00:33:01;11.50;74.40
20091;DHT22;10205;49.678;6.560;2024-02-14T00:35:28;11.50;74.40
20091;DHT22;10205;49.678;6.560;2024-02-14T00:37:55;11.60;74.50
20091;DHT22;10205;49.678;6.560;2024-02-14T00:40:22;11.50;74.40
20091;DHT22;10205;49.678;6.560;2024-02-14T00:42:49;11.50;74.40
20091;DHT22;10205;49.678;6.560;2024-02-14T00:45:16;11.60;74.40
20091;DHT22;10205;49.678;6.560;2024-02-14T00:47:44;11.50;74.40
20091;DHT22;10205;49.678;6.560;2024-02-14T00:50:12;11.50;74.30
20091;DHT22;10205;49.678;6.560;2024-02-14T00:52:41;11.50;74.20
20091;DHT22;10205;49.678;6.560;2024-02-14T00:55:08;11.50;74.30
20091;DHT22;10205;49.678;6.560;2024-02-14T00:57:35;11.50;74.30
20091;DHT22;10205;49.678;6.560;2024-02-14T01:00:03;11.50;74.30
20091;DHT22;10205;49.678;6.560;2024-02-14T01:02:32;11.50;74.30
20091;DHT22;10205;49.678;6.560;2024-02-14T01:05:00;11.50;74.40
20091;DHT22;10205;49.678;6.560;2024-02-14T01:07:27;11.50;74.50
20091;DHT22;10205;49.678;6.560;2024-02-14T01:09:54;11.50;74.50
20091;DHT22;10205;49.678;6.560;2024-02-14T01:12:21;11.50;74.50
20091;DHT22;10205;49.678;6.560;2024-02-14T01:14:48;11.50;74.40
20091;DHT22;10205;49.678;6.560;2024-02-14T01:17:15;11.50;74.30
20091;DHT22;10205;49.678;6.560;2024-02-14T01:19:43;11.50;74.40
20091;DHT22;10205;49.678;6.560;2024-02-14T01:22:11;11.50;74.50
20091;DHT22;10205;49.678;6.560;2024-02-14T01:24:41;11.60;74.70
20091;DHT22;10205;49.678;6.560;2024-02-14T01:27:09;11.60;74.50
20091;DHT22;10205;49.678;6.560;2024-02-14T01:29:36;11.50;74.40
20091;DHT22;10205;49.678;6.560;2024-02-14T01:32:04;11.50;74.30
20091;DHT22;10205;49.678;6.560;2024-02-14T01:34:32;11.50;74.20
20091;DHT22;10205;49.678;6.560;2024-02-14T01:36:59;11.50;74.30
20091;DHT22;10205;49.678;6.560;2024-02-14T01:39:27;11.50;74.30
20091;DHT22;10205;49.678;6.560;2024-02-14T01:41:55;11.50;74.30
20091;DHT22;10205;49.678;6.560;2024-02-14T01:44:24;11.50;74.30
20091;DHT22;10205;49.678;6.560;2024-02-14T01:46:51;11.50;74.50
20091;DHT22;10205;49.678;6.560;2024-02-14T01:49:19;11.50;74.60
20091;DHT22;10205;49.678;6.560;2024-02-14T01:51:46;11.50;74.40
20091;DHT22;10205;49.678;6.560;2024-02-14T01:54:14;11.50;74.40
20091;DHT22;10205;49.678;6.560;2024-02-14T01:56:45;11.50;74.40
20091;DHT22;10205;49.678;6.560;2024-02-14T01:59:13;11.50;74.40
20091;DHT22;10205;49.678;6.560;2024-02-14T02:01:41;11.50;74.40
20091;DHT22;10205;49.678;6.560;2024-02-14T02:04:08;11.50;74.50
20091;DHT22;10205;49.678;6.560;2024-02-14T02:06:36;11.50;74.50
20091;DHT22;10205;49.678;6.560;2024-02-14T02:09:03;11.60;74.60
20091;DHT22;10205;49.678;6.560;2024-02-14T02:11:44;11.60;74.60
20091;DHT22;10205;49.678;6.560;2024-02-14T02:14:13;11.60;74.60
20091;DHT22;10205;49.678;6.560;2024-02-14T02:16:40;11.60;74.40
20091;DHT22;10205;49.678;6.560;2024-02-14T02:19:07;11.60;74.30
20091;DHT22;10205;49.678;6.560;2024-02-14T02:21:35;11.60;74.30
20091;DHT22;10205;49.678;6.560;2024-02-14T02:24:04;11.60;74.30
20091;DHT22;10205;49.678;6.560;2024-02-14T02:26:32;11.60;74.30
20091;DHT22;10205;49.678;6.560;2024-02-14T02:28:59;11.60;74.30
20091;DHT22;10205;49.678;6.560;2024-02-14T02:31:26;11.70;74.50
20091;DHT22;10205;49.678;6.560;2024-02-14T02:33:53;11.60;74.40
20091;DHT22;10205;49.678;6.560;2024-02-14T02:36:20;11.70;74.60
20091;DHT22;10205;49.678;6.560;2024-02-14T02:38:49;11.70;74.60
20091;DHT22;10205;49.678;6.560;2024-02-14T02:41:18;11.70;74.80
20091;DHT22;10205;49.678;6.560;2024-02-14T02:43:45;11.70;74.70
20091;DHT22;10205;49.678;6.560;2024-02-14T02:46:16;11.70;74.60
20091;DHT22;10205;49.678;6.560;2024-02-14T02:48:43;11.70;74.60
20091;DHT22;10205;49.678;6.560;2024-02-14T02:51:13;11.70;74.60
20091;DHT22;10205;49.678;6.560;2024-02-14T02:53:42;11.70;74.60
20091;DHT22;10205;49.678;6.560;2024-02-14T02:56:09;11.70;74.50
20091;DHT22;10205;49.678;6.560;2024-02-14T02:58:39;11.70;74.50
20091;DHT22;10205;49.678;6.560;2024-02-14T03:01:07;11.80;74.50
20091;DHT22;10205;49.678;6.560;2024-02-14T03:03:35;11.70;74.50
20091;DHT22;10205;49.678;6.560;2024-02-14T03:06:04;11.80;74.50
20091;DHT22;10205;49.678;6.560;2024-02-14T03:08:32;11.80;74.50
20091;DHT22;10205;49.678;6.560;2024-02-14T03:11:03;11.70;74.50
20091;DHT22;10205;49.678;6.560;2024-02-14T03:13:31;11.70;74.40
20091;DHT22;10205;49.678;6.560;2024-02-14T03:16:00;11.70;74.40
20091;DHT22;10205;49.678;6.560;2024-02-14T03:18:27;11.70;74.40
20091;DHT22;10205;49.678;6.560;2024-02-14T03:20:54;11.70;74.40
20091;DHT22;10205;49.678;6.560;2024-02-14T03:23:21;11.70;74.50
20091;DHT22;10205;49.678;6.560;2024-02-14T03:25:48;11.70;74.50
20091;DHT22;10205;49.678;6.560;2024-02-14T03:28:17;11.70;74.40
20091;DHT22;10205;49.678;6.560;2024-02-14T03:30:45;11.70;74.40
20091;DHT22;10205;49.678;6.560;2024-02-14T03:33:14;11.70;74.50
20091;DHT22;10205;49.678;6.560;2024-02-14T03:35:41;11.70;74.50
20091;DHT22;10205;49.678;6.560;2024-02-14T03:38:08;11.70;74.40
20091;DHT22;10205;49.678;6.560;2024-02-14T03:40:36;11.70;74.50
20091;DHT22;10205;49.678;6.560;2024-02-14T03:43:04;11.70;74.50
20091;DHT22;10205;49.678;6.560;2024-02-14T03:45:31;11.70;74.50
20091;DHT22;10205;49.678;6.560;2024-02-14T03:47:58;11.70;74.60
20091;DHT22;10205;49.678;6.560;2024-02-14T03:50:26;11.70;74.60
20091;DHT22;10205;49.678;6.560;2024-02-14T03:52:54;11.70;74.60
20091;DHT22;10205;49.678;6.560;2024-02-14T03:55:21;11.70;74.60
20091;DHT22;10205;49.678;6.560;2024-02-14T03:57:49;11.70;74.70
20091;DHT22;10205;49.678;6.560;2024-02-14T04:00:17;11.70;74.70
20091;DHT22;10205;49.678;6.560;2024-02-14T04:02:44;11.70;74.80
20091;DHT22;10205;49.678;6.560;2024-02-14T04:05:14;11.70;74.70
20091;DHT22;10205;49.678;6.560;2024-02-14T04:07:43;11.70;74.70
20091;DHT22;10205;49.678;6.560;2024-02-14T04:10:14;11.70;74.80
20091;DHT22;10205;49.678;6.560;2024-02-14T04:12:41;11.70;74.80
20091;DHT22;10205;49.678;6.560;2024-02-14T04:15:09;11.60;74.80
20091;DHT22;10205;49.678;6.560;2024-02-14T04:17:36;11.60;74.90
20091;DHT22;10205;49.678;6.560;2024-02-14T04:20:04;11.60;75.00
20091;DHT22;10205;49.678;6.560;2024-02-14T04:22:32;11.60;75.00
20091;DHT22;10205;49.678;6.560;2024-02-14T04:25:00;11.60;75.10
20091;DHT22;10205;49.678;6.560;2024-02-14T04:27:27;11.60;75.20
20091;DHT22;10205;49.678;6.560;2024-02-14T04:29:54;11.50;75.20
20091;DHT22;10205;49.678;6.560;2024-02-14T04:32:22;11.50;75.20
20091;DHT22;10205;49.678;6.560;2024-02-14T04:34:50;11.50;75.20
20091;DHT22;10205;49.678;6.560;2024-02-14T04:37:17;11.50;75.30
20091;DHT22;10205;49.678;6.560;2024-02-14T04:39:44;11.60;75.40
20091;DHT22;10205;49.678;6.560;2024-02-14T04:42:13;11.60;75.40
20091;DHT22;10205;49.678;6.560;2024-02-14T04:44:40;11.60;75.40
20091;DHT22;10205;49.678;6.560;2024-02-14T04:47:10;11.60;75.40
20091;DHT22;10205;49.678;6.560;2024-02-14T04:49:37;11.60;75.30
20091;DHT22;10205;49.678;6.560;2024-02-14T04:52:04;11.60;75.30
20091;DHT22;10205;49.678;6.560;2024-02-14T04:54:33;11.60;75.30
20091;DHT22;10205;49.678;6.560;2024-02-14T04:57:00;11.60;75.30
20091;DHT22;10205;49.678;6.560;2024-02-14T04:59:30;11.60;75.30
20091;DHT22;10205;49.678;6.560;2024-02-14T05:01:57;11.60;75.40
20091;DHT22;10205;49.678;6.560;2024-02-14T05:04:25;11.60;75.40
20091;DHT22;10205;49.678;6.560;2024-02-14T05:06:53;11.60;75.40
20091;DHT22;10205;49.678;6.560;2024-02-14T05:09:20;11.60;75.40
20091;DHT22;10205;49.678;6.560;2024-02-14T05:11:47;11.60;75.40
20091;DHT22;10205;49.678;6.560;2024-02-14T05:14:14;11.60;75.50
20091;DHT22;10205;49.678;6.560;2024-02-14T05:16:43;11.60;75.50
20091;DHT22;10205;49.678;6.560;2024-02-14T05:19:10;11.60;75.50
20091;DHT22;10205;49.678;6.560;2024-02-14T05:21:37;11.60;75.50
20091;DHT22;10205;49.678;6.560;2024-02-14T05:24:05;11.60;75.50
20091;DHT22;10205;49.678;6.560;2024-02-14T05:26:34;11.60;75.50
20091;DHT22;10205;49.678;6.560;2024-02-14T05:29:01;11.60;75.60
20091;DHT22;10205;49.678;6.560;2024-02-14T05:31:44;11.60;75.70
20091;DHT22;10205;49.678;6.560;2024-02-14T05:34:12;11.60;76.00
20091;DHT22;10205;49.678;6.560;2024-02-14T05:36:39;11.60;75.70
20091;DHT22;10205;49.678;6.560;2024-02-14T05:39:08;11.60;75.70
20091;DHT22;10205;49.678;6.560;2024-02-14T05:41:35;11.60;75.80
20091;DHT22;10205;49.678;6.560;2024-02-14T05:44:03;11.60;75.90
20091;DHT22;10205;49.678;6.560;2024-02-14T05:46:30;11.60;76.00
20091;DHT22;10205;49.678;6.560;2024-02-14T05:48:59;11.60;76.00
20091;DHT22;10205;49.678;6.560;2024-02-14T05:51:26;11.60;76.10
20091;DHT22;10205;49.678;6.560;2024-02-14T05:53:53;11.60;76.10
20091;DHT22;10205;49.678;6.560;2024-02-14T05:56:20;11.60;76.10
20091;DHT22;10205;49.678;6.560;2024-02-14T05:58:47;11.60;76.20
20091;DHT22;10205;49.678;6.560;2024-02-14T06:01:15;11.60;76.10
20091;DHT22;10205;49.678;6.560;2024-02-14T06:03:43;11.60;76.10
20091;DHT22;10205;49.678;6.560;2024-02-14T06:06:11;11.60;76.10
20091;DHT22;10205;49.678;6.560;2024-02-14T06:08:38;11.60;76.20
20091;DHT22;10205;49.678;6.560;2024-02-14T06:11:05;11.60;76.20
20091;DHT22;10205;49.678;6.560;2024-02-14T06:13:33;11.60;76.10
20091;DHT22;10205;49.678;6.560;2024-02-14T06:16:01;11.70;77.10
20091;DHT22;10205;49.678;6.560;2024-02-14T06:18:28;11.70;76.20
20091;DHT22;10205;49.678;6.560;2024-02-14T06:20:55;11.70;76.20
20091;DHT22;10205;49.678;6.560;2024-02-14T06:23:24;11.70;76.20
20091;DHT22;10205;49.678;6.560;2024-02-14T06:25:51;11.70;76.20
20091;DHT22;10205;49.678;6.560;2024-02-14T06:28:18;11.70;76.20
20091;DHT22;10205;49.678;6.560;2024-02-14T06:30:46;11.70;76.10
20091;DHT22;10205;49.678;6.560;2024-02-14T06:33:13;11.70;76.90
20091;DHT22;10205;49.678;6.560;2024-02-14T06:35:39;11.80;76.20
20091;DHT22;10205;49.678;6.560;2024-02-14T06:38:06;11.70;76.10
20091;DHT22;10205;49.678;6.560;2024-02-14T06:40:34;11.70;76.10
20091;DHT22;10205;49.678;6.560;2024-02-14T06:43:01;11.70;76.20
20091;DHT22;10205;49.678;6.560;2024-02-14T06:45:28;11.70;76.20
20091;DHT22;10205;49.678;6.560;2024-02-14T06:47:56;11.70;76.30
20091;DHT22;10205;49.678;6.560;2024-02-14T06:50:23;11.70;76.20
20091;DHT22;10205;49.678;6.560;2024-02-14T06:52:50;11.70;76.20
20091;DHT22;10205;49.678;6.560;2024-02-14T06:55:18;11.70;76.30
20091;DHT22;10205;49.678;6.560;2024-02-14T06:57:46;11.70;76.40
20091;DHT22;10205;49.678;6.560;2024-02-14T07:00:14;11.70;76.40
20091;DHT22;10205;49.678;6.560;2024-02-14T07:02:41;11.70;76.50
20091;DHT22;10205;49.678;6.560;2024-02-14T07:05:08;11.70;76.40
20091;DHT22;10205;49.678;6.560;2024-02-14T07:07:38;11.70;77.30
20091;DHT22;10205;49.678;6.560;2024-02-14T07:10:06;11.70;77.30
20091;DHT22;10205;49.678;6.560;2024-02-14T07:12:34;11.70;76.50
20091;DHT22;10205;49.678;6.560;2024-02-14T07:15:05;11.70;76.50
20091;DHT22;10205;49.678;6.560;2024-02-14T07:17:33;11.70;76.60
20091;DHT22;10205;49.678;6.560;2024-02-14T07:20:01;11.70;76.60
20091;DHT22;10205;49.678;6.560;2024-02-14T07:22:28;11.70;76.70
20091;DHT22;10205;49.678;6.560;2024-02-14T07:24:56;11.70;76.70
20091;DHT22;10205;49.678;6.560;2024-02-14T07:27:23;11.70;76.80
20091;DHT22;10205;49.678;6.560;2024-02-14T07:29:50;11.70;76.90
20091;DHT22;10205;49.678;6.560;2024-02-14T07:32:19;11.70;76.90
20091;DHT22;10205;49.678;6.560;2024-02-14T07:34:47;11.70;76.90
20091;DHT22;10205;49.678;6.560;2024-02-14T07:37:14;11.70;76.90
20091;DHT22;10205;49.678;6.560;2024-02-14T07:39:43;11.70;76.90
20091;DHT22;10205;49.678;6.560;2024-02-14T07:42:12;11.70;77.00
20091;DHT22;10205;49.678;6.560;2024-02-14T07:44:39;11.70;77.00
20091;DHT22;10205;49.678;6.560;2024-02-14T07:47:06;11.70;77.00
20091;DHT22;10205;49.678;6.560;2024-02-14T07:49:34;11.70;77.10
20091;DHT22;10205;49.678;6.560;2024-02-14T07:52:01;11.70;77.30
20091;DHT22;10205;49.678;6.560;2024-02-14T07:54:29;11.70;77.20
20091;DHT22;10205;49.678;6.560;2024-02-14T07:56:56;11.70;77.20
20091;DHT22;10205;49.678;6.560;2024-02-14T07:59:24;11.70;77.30
20091;DHT22;10205;49.678;6.560;2024-02-14T08:01:51;11.70;77.20
20091;DHT22;10205;49.678;6.560;2024-02-14T08:04:18;11.70;77.30
20091;DHT22;10205;49.678;6.560;2024-02-14T08:06:47;11.70;77.20
20091;DHT22;10205;49.678;6.560;2024-02-14T08:09:14;11.70;77.30
20091;DHT22;10205;49.678;6.560;2024-02-14T08:11:41;11.70;77.30
20091;DHT22;10205;49.678;6.560;2024-02-14T08:14:08;11.70;77.30
20091;DHT22;10205;49.678;6.560;2024-02-14T08:16:37;11.70;77.30
20091;DHT22;10205;49.678;6.560;2024-02-14T08:19:04;11.70;78.10
20091;DHT22;10205;49.678;6.560;2024-02-14T08:21:30;11.70;77.30
20091;DHT22;10205;49.678;6.560;2024-02-14T08:23:59;11.70;77.40
20091;DHT22;10205;49.678;6.560;2024-02-14T08:26:26;11.70;77.50
20091;DHT22;10205;49.678;6.560;2024-02-14T08:28:53;11.70;77.50
20091;DHT22;10205;49.678;6.560;2024-02-14T08:31:20;11.70;77.50
20091;DHT22;10205;49.678;6.560;2024-02-14T08:33:47;11.70;77.60
20091;DHT22;10205;49.678;6.560;2024-02-14T08:36:14;11.70;77.50
20091;DHT22;10205;49.678;6.560;2024-02-14T08:38:44;11.70;77.60
20091;DHT22;10205;49.678;6.560;2024-02-14T08:41:13;11.70;77.60
20091;DHT22;10205;49.678;6.560;2024-02-14T08:43:40;11.80;77.80
20091;DHT22;10205;49.678;6.560;2024-02-14T08:46:10;11.80;77.80
20091;DHT22;10205;49.678;6.560;2024-02-14T08:48:37;11.80;77.80
20091;DHT22;10205;49.678;6.560;2024-02-14T08:51:07;11.80;77.80
20091;DHT22;10205;49.678;6.560;2024-02-14T08:53:35;11.80;77.80
20091;DHT22;10205;49.678;6.560;2024-02-14T08:56:03;11.80;77.90
20091;DHT22;10205;49.678;6.560;2024-02-14T08:58:32;11.80;77.90
20091;DHT22;10205;49.678;6.560;2024-02-14T09:01:00;11.80;77.90
20091;DHT22;10205;49.678;6.560;2024-02-14T09:03:27;11.80;77.80
20091;DHT22;10205;49.678;6.560;2024-02-14T09:05:56;11.80;77.80
20091;DHT22;10205;49.678;6.560;2024-02-14T09:08:23;11.90;77.90
20091;DHT22;10205;49.678;6.560;2024-02-14T09:10:50;11.90;78.70
20091;DHT22;10205;49.678;6.560;2024-02-14T09:13:17;11.90;78.00
20091;DHT22;10205;49.678;6.560;2024-02-14T09:15:46;11.90;78.00
20091;DHT22;10205;49.678;6.560;2024-02-14T09:18:16;11.90;78.20
20091;DHT22;10205;49.678;6.560;2024-02-14T09:20:44;11.90;78.20
20091;DHT22;10205;49.678;6.560;2024-02-14T09:23:12;11.90;78.10
20091;DHT22;10205;49.678;6.560;2024-02-14T09:25:42;12.00;78.10
20091;DHT22;10205;49.678;6.560;2024-02-14T09:28:09;12.00;78.10
20091;DHT22;10205;49.678;6.560;2024-02-14T09:30:37;12.00;78.00
20091;DHT22;10205;49.678;6.560;2024-02-14T09:33:05;12.00;78.00
20091;DHT22;10205;49.678;6.560;2024-02-14T09:35:32;12.00;77.90
20091;DHT22;10205;49.678;6.560;2024-02-14T09:38:00;12.10;78.00
20091;DHT22;10205;49.678;6.560;2024-02-14T09:40:28;12.10;78.00
20091;DHT22;10205;49.678;6.560;2024-02-14T09:42:56;12.10;78.00
20091;DHT22;10205;49.678;6.560;2024-02-14T09:45:25;12.10;78.00
20091;DHT22;10205;49.678;6.560;2024-02-14T09:47:53;12.10;78.10
20091;DHT22;10205;49.678;6.560;2024-02-14T09:50:22;12.20;78.10
20091;DHT22;10205;49.678;6.560;2024-02-14T09:52:51;12.20;78.10
20091;DHT22;10205;49.678;6.560;2024-02-14T09:55:20;12.20;78.00
20091;DHT22;10205;49.678;6.560;2024-02-14T09:57:51;12.20;78.00
20091;DHT22;10205;49.678;6.560;2024-02-14T10:00:21;12.20;78.00
20091;DHT22;10205;49.678;6.560;2024-02-14T10:02:49;12.30;78.10
20091;DHT22;10205;49.678;6.560;2024-02-14T10:05:17;12.30;78.10
20091;DHT22;10205;49.678;6.560;2024-02-14T10:07:45;12.30;78.10
20091;DHT22;10205;49.678;6.560;2024-02-14T10:10:12;12.30;78.10
20091;DHT22;10205;49.678;6.560;2024-02-14T10:12:40;12.30;78.10
20091;DHT22;10205;49.678;6.560;2024-02-14T10:15:09;12.30;78.20
20091;DHT22;10205;49.678;6.560;2024-02-14T10:17:39;12.40;78.40
20091;DHT22;10205;49.678;6.560;2024-02-14T10:20:08;12.40;78.50
20091;DHT22;10205;49.678;6.560;2024-02-14T10:22:37;12.40;78.40
20091;DHT22;10205;49.678;6.560;2024-02-14T10:25:07;12.40;78.40
20091;DHT22;10205;49.678;6.560;2024-02-14T10:27:36;12.50;78.40
20091;DHT22;10205;49.678;6.560;2024-02-14T10:30:05;12.50;78.40
20091;DHT22;10205;49.678;6.560;2024-02-14T10:32:35;12.50;78.40
20091;DHT22;10205;49.678;6.560;2024-02-14T10:35:04;12.50;78.40
20091;DHT22;10205;49.678;6.560;2024-02-14T10:37:34;12.60;78.40
20091;DHT22;10205;49.678;6.560;2024-02-14T10:40:02;12.60;78.30
20091;DHT22;10205;49.678;6.560;2024-02-14T10:42:31;12.60;78.40
20091;DHT22;10205;49.678;6.560;2024-02-14T10:44:59;12.70;78.60
20091;DHT22;10205;49.678;6.560;2024-02-14T10:47:30;12.70;78.50
20091;DHT22;10205;49.678;6.560;2024-02-14T10:50:01;12.70;78.60
20091;DHT22;10205;49.678;6.560;2024-02-14T10:52:31;12.70;78.50
20091;DHT22;10205;49.678;6.560;2024-02-14T10:55:02;12.70;78.40
20091;DHT22;10205;49.678;6.560;2024-02-14T10:57:32;12.80;78.50
20091;DHT22;10205;49.678;6.560;2024-02-14T11:00:02;12.80;78.50
20091;DHT22;10205;49.678;6.560;2024-02-14T11:02:32;12.90;78.50
20091;DHT22;10205;49.678;6.560;2024-02-14T11:04:59;12.90;78.60
20091;DHT22;10205;49.678;6.560;2024-02-14T11:07:28;12.90;79.40
20091;DHT22;10205;49.678;6.560;2024-02-14T11:10:05;12.90;78.60
20091;DHT22;10205;49.678;6.560;2024-02-14T11:12:34;13.00;78.70
20091;DHT22;10205;49.678;6.560;2024-02-14T11:15:10;13.00;78.50
20091;DHT22;10205;49.678;6.560;2024-02-14T11:17:38;13.00;78.40
20091;DHT22;10205;49.678;6.560;2024-02-14T11:20:16;13.00;78.30
20091;DHT22;10205;49.678;6.560;2024-02-14T11:22:53;13.10;78.60
20091;DHT22;10205;49.678;6.560;2024-02-14T11:25:39;13.10;78.60
20091;DHT22;10205;49.678;6.560;2024-02-14T11:28:14;13.10;78.80
20091;DHT22;10205;49.678;6.560;2024-02-14T11:30:43;13.20;78.70
20091;DHT22;10205;49.678;6.560;2024-02-14T11:33:13;13.20;78.50
20091;DHT22;10205;49.678;6.560;2024-02-14T11:35:44;13.20;78.50
20091;DHT22;10205;49.678;6.560;2024-02-14T11:38:13;13.20;78.50
20091;DHT22;10205;49.678;6.560;2024-02-14T11:40:40;13.20;78.40
20091;DHT22;10205;49.678;6.560;2024-02-14T11:43:11;13.20;78.50
20091;DHT22;10205;49.678;6.560;2024-02-14T11:45:42;13.30;78.70
20091;DHT22;10205;49.678;6.560;2024-02-14T11:48:11;13.30;78.70
20091;DHT22;10205;49.678;6.560;2024-02-14T11:50:40;13.30;78.60
20091;DHT22;10205;49.678;6.560;2024-02-14T11:53:10;13.40;78.70
20091;DHT22;10205;49.678;6.560;2024-02-14T11:55:38;13.40;78.80
20091;DHT22;10205;49.678;6.560;2024-02-14T11:58:09;13.40;78.60
20091;DHT22;10205;49.678;6.560;2024-02-14T12:00:37;13.40;78.80
20091;DHT22;10205;49.678;6.560;2024-02-14T12:03:10;13.40;78.80
20091;DHT22;10205;49.678;6.560;2024-02-14T12:05:39;13.50;78.80
20091;DHT22;10205;49.678;6.560;2024-02-14T12:08:09;13.50;78.60
20091;DHT22;10205;49.678;6.560;2024-02-14T12:10:36;13.50;78.60
20091;DHT22;10205;49.678;6.560;2024-02-14T12:13:07;13.50;78.60
20091;DHT22;10205;49.678;6.560;2024-02-14T12:15:40;13.60;78.70
20091;DHT22;10205;49.678;6.560;2024-02-14T12:18:09;13.60;78.60
20091;DHT22;10205;49.678;6.560;2024-02-14T12:20:36;13.60;78.60
20091;DHT22;10205;49.678;6.560;2024-02-14T12:23:04;13.60;78.60
20091;DHT22;10205;49.678;6.560;2024-02-14T12:25:33;13.70;78.60
20091;DHT22;10205;49.678;6.560;2024-02-14T12:28:00;13.70;78.60
20091;DHT22;10205;49.678;6.560;2024-02-14T12:30:42;13.70;79.30
20091;DHT22;10205;49.678;6.560;2024-02-14T12:33:13;13.70;78.60
20091;DHT22;10205;49.678;6.560;2024-02-14T12:35:42;13.70;78.40
20091;DHT22;10205;49.678;6.560;2024-02-14T12:38:10;13.70;78.30
20091;DHT22;10205;49.678;6.560;2024-02-14T12:40:39;13.80;78.30
20091;DHT22;10205;49.678;6.560;2024-02-14T12:43:08;13.80;78.20
20091;DHT22;10205;49.678;6.560;2024-02-14T12:45:36;13.80;78.20
20091;DHT22;10205;49.678;6.560;2024-02-14T12:48:03;13.80;78.20
20091;DHT22;10205;49.678;6.560;2024-02-14T12:50:33;13.90;78.20
20091;DHT22;10205;49.678;6.560;2024-02-14T12:53:00;13.90;78.20
20091;DHT22;10205;49.678;6.560;2024-02-14T12:55:27;13.90;78.30
20091;DHT22;10205;49.678;6.560;2024-02-14T12:57:55;13.90;78.30
20091;DHT22;10205;49.678;6.560;2024-02-14T13:00:22;13.90;78.40
20091;DHT22;10205;49.678;6.560;2024-02-14T13:02:49;13.90;78.30
20091;DHT22;10205;49.678;6.560;2024-02-14T13:05:17;14.00;78.30
20091;DHT22;10205;49.678;6.560;2024-02-14T13:07:46;14.00;78.30
20091;DHT22;10205;49.678;6.560;2024-02-14T13:10:13;14.00;78.20
20091;DHT22;10205;49.678;6.560;2024-02-14T13:12:40;14.00;78.20
20091;DHT22;10205;49.678;6.560;2024-02-14T13:15:09;14.00;78.20
20091;DHT22;10205;49.678;6.560;2024-02-14T13:17:36;14.00;78.20
20091;DHT22;10205;49.678;6.560;2024-02-14T13:20:04;14.00;78.20
20091;DHT22;10205;49.678;6.560;2024-02-14T13:22:32;14.10;78.20
20091;DHT22;10205;49.678;6.560;2024-02-14T13:25:01;14.10;78.20
20091;DHT22;10205;49.678;6.560;2024-02-14T13:27:30;14.10;78.10
20091;DHT22;10205;49.678;6.560;2024-02-14T13:29:59;14.10;78.20
20091;DHT22;10205;49.678;6.560;2024-02-14T13:32:26;14.20;78.30
20091;DHT22;10205;49.678;6.560;2024-02-14T13:34:53;14.10;78.30
20091;DHT22;10205;49.678;6.560;2024-02-14T13:37:20;14.10;78.20
20091;DHT22;10205;49.678;6.560;2024-02-14T13:39:47;14.20;78.20
20091;DHT22;10205;49.678;6.560;2024-02-14T13:42:15;14.20;78.10
20091;DHT22;10205;49.678;6.560;2024-02-14T13:44:42;14.20;78.10
20091;DHT22;10205;49.678;6.560;2024-02-14T13:47:10;14.20;78.10
20091;DHT22;10205;49.678;6.560;2024-02-14T13:49:37;14.20;78.20
20091;DHT22;10205;49.678;6.560;2024-02-14T13:52:04;14.20;78.10
20091;DHT22;10205;49.678;6.560;2024-02-14T13:54:31;14.20;78.10
20091;DHT22;10205;49.678;6.560;2024-02-14T13:56:58;14.20;78.20
20091;DHT22;10205;49.678;6.560;2024-02-14T13:59:26;14.30;78.30
20091;DHT22;10205;49.678;6.560;2024-02-14T14:01:54;14.30;78.30
20091;DHT22;10205;49.678;6.560;2024-02-14T14:04:21;14.30;78.40
20091;DHT22;10205;49.678;6.560;2024-02-14T14:06:48;14.30;78.40
20091;DHT22;10205;49.678;6.560;2024-02-14T14:09:16;14.30;78.50
20091;DHT22;10205;49.678;6.560;2024-02-14T14:11:43;14.30;78.50
20091;DHT22;10205;49.678;6.560;2024-02-14T14:14:11;14.30;78.40
20091;DHT22;10205;49.678;6.560;2024-02-14T14:16:45;14.30;78.30
20091;DHT22;10205;49.678;6.560;2024-02-14T14:19:12;14.30;78.20
20091;DHT22;10205;49.678;6.560;2024-02-14T14:21:41;14.40;78.40
20091;DHT22;10205;49.678;6.560;2024-02-14T14:24:08;14.40;78.40
20091;DHT22;10205;49.678;6.560;2024-02-14T14:26:35;14.40;78.40
20091;DHT22;10205;49.678;6.560;2024-02-14T14:29:03;14.40;78.30
20091;DHT22;10205;49.678;6.560;2024-02-14T14:31:30;14.40;78.30
20091;DHT22;10205;49.678;6.560;2024-02-14T14:34:03;14.40;78.30
20091;DHT22;10205;49.678;6.560;2024-02-14T14:36:30;14.40;78.40
20091;DHT22;10205;49.678;6.560;2024-02-14T14:38:57;14.40;78.20
20091;DHT22;10205;49.678;6.560;2024-02-14T14:41:25;14.40;78.20
20091;DHT22;10205;49.678;6.560;2024-02-14T14:43:54;14.50;78.30
20091;DHT22;10205;49.678;6.560;2024-02-14T14:46:21;14.50;78.40
20091;DHT22;10205;49.678;6.560;2024-02-14T14:48:48;14.50;78.40
20091;DHT22;10205;49.678;6.560;2024-02-14T14:51:16;14.50;78.70
20091;DHT22;10205;49.678;6.560;2024-02-14T14:53:43;14.50;78.70
20091;DHT22;10205;49.678;6.560;2024-02-14T14:56:10;14.50;78.70
20091;DHT22;10205;49.678;6.560;2024-02-14T14:58:37;14.50;78.70
20091;DHT22;10205;49.678;6.560;2024-02-14T15:01:06;14.50;78.70
20091;DHT22;10205;49.678;6.560;2024-02-14T15:03:37;14.50;78.60
20091;DHT22;10205;49.678;6.560;2024-02-14T15:06:05;14.50;78.60
20091;DHT22;10205;49.678;6.560;2024-02-14T15:08:33;14.60;78.70
20091;DHT22;10205;49.678;6.560;2024-02-14T15:11:00;14.60;79.10
20091;DHT22;10205;49.678;6.560;2024-02-14T15:13:28;14.60;79.40
20091;DHT22;10205;49.678;6.560;2024-02-14T15:15:55;14.60;79.80
20091;DHT22;10205;49.678;6.560;2024-02-14T15:18:23;14.70;80.10
20091;DHT22;10205;49.678;6.560;2024-02-14T15:20:50;14.70;80.20
20091;DHT22;10205;49.678;6.560;2024-02-14T15:23:17;14.70;80.30
20091;DHT22;10205;49.678;6.560;2024-02-14T15:25:45;14.80;80.40
20091;DHT22;10205;49.678;6.560;2024-02-14T15:28:12;14.80;80.50
20091;DHT22;10205;49.678;6.560;2024-02-14T15:30:47;14.80;80.60
20091;DHT22;10205;49.678;6.560;2024-02-14T15:33:32;14.90;80.80
20091;DHT22;10205;49.678;6.560;2024-02-14T15:35:59;14.90;80.60